sensor_id;sensor_type;location;lat;lon;timestamp;P1;durP1;ratioP1;P2;durP2;ratioP2
10452;SDS011;5274;51.992;8.518;2022-10-26T00:02:20;2.92;;;2.00;;
10452;SDS011;5274;51.992;8.518;2022-10-26T00:04:46;4.65;;;2.40;;
10452;SDS011;5274;51.992;8.518;2022-10-26T00:07:11;3.65;;;2.00;;
10452;SDS011;5274;51.992;8.518;2022-10-26T00:09:37;3.40;;;2.10;;
10452;SDS011;5274;51.992;8.518;2022-10-26T00:12:03;6.63;;;2.55;;
10452;SDS011;5274;51.992;8.518;2022-10-26T00:14:28;3.35;;;2.17;;
10452;SDS011;5274;51.992;8.518;2022-10-26T00:16:54;5.60;;;1.92;;
10452;SDS011;5274;51.992;8.518;2022-10-26T00:19:20;3.10;;;2.17;;
10452;SDS011;5274;51.992;8.518;2022-10-26T00:21:45;3.30;;;1.80;;
10452;SDS011;5274;51.992;8.518;2022-10-26T00:24:11;9.55;;;2.20;;
10452;SDS011;5274;51.992;8.518;2022-10-26T00:26:37;2.08;;;1.77;;
10452;SDS011;5274;51.992;8.518;2022-10-26T00:29:03;3.03;;;1.83;;
10452;SDS011;5274;51.992;8.518;2022-10-26T00:31:29;4.90;;;2.00;;
10452;SDS011;5274;51.992;8.518;2022-10-26T00:33:55;6.35;;;2.10;;
10452;SDS011;5274;51.992;8.518;2022-10-26T00:36:21;3.13;;;1.77;;
10452;SDS011;5274;51.992;8.518;2022-10-26T00:38:48;4.45;;;1.77;;
10452;SDS011;5274;51.992;8.518;2022-10-26T00:41:19;3.67;;;1.88;;
10452;SDS011;5274;51.992;8.518;2022-10-26T00:43:46;4.07;;;1.90;;
10452;SDS011;5274;51.992;8.518;2022-10-26T00:46:14;2.13;;;1.77;;
10452;SDS011;5274;51.992;8.518;2022-10-26T00:48:45;6.30;;;1.90;;
10452;SDS011;5274;51.992;8.518;2022-10-26T00:51:24;3.13;;;2.03;;
10452;SDS011;5274;51.992;8.518;2022-10-26T00:53:57;3.10;;;1.70;;
10452;SDS011;5274;51.992;8.518;2022-10-26T00:56:28;3.38;;;2.00;;
10452;SDS011;5274;51.992;8.518;2022-10-26T00:58:55;6.72;;;1.80;;
10452;SDS011;5274;51.992;8.518;2022-10-26T01:01:24;2.85;;;1.73;;
10452;SDS011;5274;51.992;8.518;2022-10-26T01:03:50;2.95;;;1.60;;
10452;SDS011;5274;51.992;8.518;2022-10-26T01:06:15;8.57;;;2.08;;
10452;SDS011;5274;51.992;8.518;2022-10-26T01:08:41;3.90;;;1.70;;
10452;SDS011;5274;51.992;8.518;2022-10-26T01:11:07;2.70;;;1.70;;
10452;SDS011;5274;51.992;8.518;2022-10-26T01:13:34;3.17;;;1.58;;
10452;SDS011;5274;51.992;8.518;2022-10-26T01:21:56;3.90;;;1.58;;
10452;SDS011;5274;51.992;8.518;2022-10-26T01:24:38;2.47;;;1.90;;
10452;SDS011;5274;51.992;8.518;2022-10-26T01:30:58;2.67;;;1.73;;
10452;SDS011;5274;51.992;8.518;2022-10-26T01:33:36;2.70;;;1.60;;
10452;SDS011;5274;51.992;8.518;2022-10-26T01:36:10;3.25;;;1.50;;
10452;SDS011;5274;51.992;8.518;2022-10-26T01:38:53;3.42;;;1.65;;
10452;SDS011;5274;51.992;8.518;2022-10-26T01:41:45;2.63;;;1.58;;
10452;SDS011;5274;51.992;8.518;2022-10-26T01:44:20;2.15;;;1.40;;
10452;SDS011;5274;51.992;8.518;2022-10-26T01:46:49;2.38;;;1.48;;
10452;SDS011;5274;51.992;8.518;2022-10-26T01:49:19;3.63;;;1.67;;
10452;SDS011;5274;51.992;8.518;2022-10-26T01:51:47;4.25;;;1.73;;
10452;SDS011;5274;51.992;8.518;2022-10-26T01:54:14;3.67;;;1.65;;
10452;SDS011;5274;51.992;8.518;2022-10-26T01:56:41;6.88;;;1.77;;
10452;SDS011;5274;51.992;8.518;2022-10-26T01:59:14;4.82;;;1.63;;
10452;SDS011;5274;51.992;8.518;2022-10-26T02:04:34;5.70;;;1.70;;
10452;SDS011;5274;51.992;8.518;2022-10-26T02:07:03;4.15;;;1.85;;
10452;SDS011;5274;51.992;8.518;2022-10-26T02:12:47;2.38;;;1.60;;
10452;SDS011;5274;51.992;8.518;2022-10-26T02:15:33;3.67;;;1.85;;
10452;SDS011;5274;51.992;8.518;2022-10-26T02:20:48;9.20;;;2.03;;
10452;SDS011;5274;51.992;8.518;2022-10-26T02:23:17;4.53;;;1.85;;
10452;SDS011;5274;51.992;8.518;2022-10-26T02:25:47;2.10;;;1.90;;
10452;SDS011;5274;51.992;8.518;2022-10-26T02:28:18;3.78;;;2.05;;
10452;SDS011;5274;51.992;8.518;2022-10-26T02:30:49;2.13;;;1.92;;
10452;SDS011;5274;51.992;8.518;2022-10-26T02:33:17;6.40;;;2.40;;
10452;SDS011;5274;51.992;8.518;2022-10-26T02:35:46;6.82;;;2.75;;
10452;SDS011;5274;51.992;8.518;2022-10-26T02:38:15;4.00;;;2.60;;
10452;SDS011;5274;51.992;8.518;2022-10-26T02:40:43;5.55;;;2.75;;
10452;SDS011;5274;51.992;8.518;2022-10-26T02:43:12;4.82;;;2.72;;
10452;SDS011;5274;51.992;8.518;2022-10-26T02:45:43;5.47;;;2.53;;
10452;SDS011;5274;51.992;8.518;2022-10-26T02:48:12;4.40;;;3.03;;
10452;SDS011;5274;51.992;8.518;2022-10-26T02:51:22;7.60;;;3.55;;
10452;SDS011;5274;51.992;8.518;2022-10-26T02:53:34;6.43;;;3.30;;
10452;SDS011;5274;51.992;8.518;2022-10-26T02:56:12;4.68;;;3.30;;
10452;SDS011;5274;51.992;8.518;2022-10-26T02:58:42;6.22;;;3.40;;
10452;SDS011;5274;51.992;8.518;2022-10-26T03:01:12;8.52;;;3.80;;
10452;SDS011;5274;51.992;8.518;2022-10-26T03:03:38;7.35;;;3.95;;
10452;SDS011;5274;51.992;8.518;2022-10-26T03:06:03;10.20;;;4.13;;
10452;SDS011;5274;51.992;8.518;2022-10-26T03:08:29;7.78;;;3.42;;
10452;SDS011;5274;51.992;8.518;2022-10-26T03:10:55;7.32;;;3.50;;
10452;SDS011;5274;51.992;8.518;2022-10-26T03:13:20;7.75;;;3.47;;
10452;SDS011;5274;51.992;8.518;2022-10-26T03:15:46;13.40;;;3.70;;
10452;SDS011;5274;51.992;8.518;2022-10-26T03:18:11;10.27;;;3.47;;
10452;SDS011;5274;51.992;8.518;2022-10-26T03:20:37;7.30;;;3.85;;
10452;SDS011;5274;51.992;8.518;2022-10-26T03:23:02;9.15;;;4.20;;
10452;SDS011;5274;51.992;8.518;2022-10-26T03:25:28;9.73;;;4.00;;
10452;SDS011;5274;51.992;8.518;2022-10-26T03:27:57;8.20;;;3.83;;
10452;SDS011;5274;51.992;8.518;2022-10-26T03:30:23;5.65;;;3.60;;
10452;SDS011;5274;51.992;8.518;2022-10-26T03:32:49;4.07;;;3.25;;
10452;SDS011;5274;51.992;8.518;2022-10-26T03:35:15;7.25;;;3.72;;
10452;SDS011;5274;51.992;8.518;2022-10-26T03:37:40;7.78;;;3.53;;
10452;SDS011;5274;51.992;8.518;2022-10-26T03:40:06;6.05;;;3.45;;
10452;SDS011;5274;51.992;8.518;2022-10-26T03:42:32;10.35;;;3.67;;
10452;SDS011;5274;51.992;8.518;2022-10-26T03:45:00;5.20;;;3.20;;
10452;SDS011;5274;51.992;8.518;2022-10-26T03:47:26;7.85;;;3.88;;
10452;SDS011;5274;51.992;8.518;2022-10-26T03:49:51;4.25;;;3.35;;
10452;SDS011;5274;51.992;8.518;2022-10-26T03:52:17;6.88;;;3.30;;
10452;SDS011;5274;51.992;8.518;2022-10-26T03:54:42;5.43;;;3.22;;
10452;SDS011;5274;51.992;8.518;2022-10-26T03:57:08;7.50;;;3.33;;
10452;SDS011;5274;51.992;8.518;2022-10-26T03:59:33;7.22;;;3.15;;
10452;SDS011;5274;51.992;8.518;2022-10-26T04:01:59;4.97;;;3.35;;
10452;SDS011;5274;51.992;8.518;2022-10-26T04:04:24;4.05;;;3.00;;
10452;SDS011;5274;51.992;8.518;2022-10-26T04:06:50;5.63;;;2.60;;
10452;SDS011;5274;51.992;8.518;2022-10-26T04:09:16;3.25;;;2.80;;
10452;SDS011;5274;51.992;8.518;2022-10-26T04:11:41;4.10;;;3.00;;
10452;SDS011;5274;51.992;8.518;2022-10-26T04:14:07;3.78;;;2.63;;
10452;SDS011;5274;51.992;8.518;2022-10-26T04:16:32;3.50;;;2.90;;
10452;SDS011;5274;51.992;8.518;2022-10-26T04:18:58;5.25;;;2.60;;
10452;SDS011;5274;51.992;8.518;2022-10-26T04:21:24;4.85;;;2.30;;
10452;SDS011;5274;51.992;8.518;2022-10-26T04:23:49;8.60;;;2.55;;
10452;SDS011;5274;51.992;8.518;2022-10-26T04:26:15;3.85;;;2.53;;
10452;SDS011;5274;51.992;8.518;2022-10-26T04:28:40;4.65;;;2.67;;
10452;SDS011;5274;51.992;8.518;2022-10-26T04:31:06;3.15;;;2.35;;
10452;SDS011;5274;51.992;8.518;2022-10-26T04:33:31;5.15;;;2.03;;
10452;SDS011;5274;51.992;8.518;2022-10-26T04:36:00;3.60;;;2.47;;
10452;SDS011;5274;51.992;8.518;2022-10-26T04:38:26;6.10;;;2.92;;
10452;SDS011;5274;51.992;8.518;2022-10-26T04:40:51;3.15;;;2.10;;
10452;SDS011;5274;51.992;8.518;2022-10-26T04:43:17;5.43;;;2.28;;
10452;SDS011;5274;51.992;8.518;2022-10-26T04:45:42;3.47;;;2.22;;
10452;SDS011;5274;51.992;8.518;2022-10-26T04:48:09;8.20;;;2.40;;
10452;SDS011;5274;51.992;8.518;2022-10-26T04:50:37;5.47;;;2.22;;
10452;SDS011;5274;51.992;8.518;2022-10-26T04:53:03;2.97;;;2.28;;
10452;SDS011;5274;51.992;8.518;2022-10-26T04:55:30;4.90;;;2.33;;
10452;SDS011;5274;51.992;8.518;2022-10-26T04:57:55;4.18;;;2.13;;
10452;SDS011;5274;51.992;8.518;2022-10-26T05:00:21;3.42;;;2.17;;
10452;SDS011;5274;51.992;8.518;2022-10-26T05:02:46;6.68;;;2.00;;
10452;SDS011;5274;51.992;8.518;2022-10-26T05:05:12;4.38;;;1.75;;
10452;SDS011;5274;51.992;8.518;2022-10-26T05:07:37;3.08;;;1.70;;
10452;SDS011;5274;51.992;8.518;2022-10-26T05:10:03;5.20;;;1.95;;
10452;SDS011;5274;51.992;8.518;2022-10-26T05:12:29;5.00;;;2.00;;
10452;SDS011;5274;51.992;8.518;2022-10-26T05:14:55;4.30;;;1.73;;
10452;SDS011;5274;51.992;8.518;2022-10-26T05:17:23;6.22;;;2.03;;
10452;SDS011;5274;51.992;8.518;2022-10-26T05:19:49;2.47;;;1.95;;
10452;SDS011;5274;51.992;8.518;2022-10-26T05:22:19;2.33;;;1.88;;
10452;SDS011;5274;51.992;8.518;2022-10-26T05:24:51;4.03;;;1.92;;
10452;SDS011;5274;51.992;8.518;2022-10-26T05:27:16;2.97;;;2.28;;
10452;SDS011;5274;51.992;8.518;2022-10-26T05:29:42;5.47;;;1.90;;
10452;SDS011;5274;51.992;8.518;2022-10-26T05:32:08;4.55;;;1.90;;
10452;SDS011;5274;51.992;8.518;2022-10-26T05:34:33;3.58;;;1.75;;
10452;SDS011;5274;51.992;8.518;2022-10-26T05:36:59;4.53;;;2.25;;
10452;SDS011;5274;51.992;8.518;2022-10-26T05:39:24;1.90;;;1.70;;
10452;SDS011;5274;51.992;8.518;2022-10-26T05:41:50;5.05;;;2.05;;
10452;SDS011;5274;51.992;8.518;2022-10-26T05:44:15;1.98;;;1.77;;
10452;SDS011;5274;51.992;8.518;2022-10-26T05:46:41;3.63;;;1.88;;
10452;SDS011;5274;51.992;8.518;2022-10-26T05:49:06;4.72;;;2.13;;
10452;SDS011;5274;51.992;8.518;2022-10-26T05:51:32;4.47;;;1.88;;
10452;SDS011;5274;51.992;8.518;2022-10-26T05:53:59;4.13;;;2.15;;
10452;SDS011;5274;51.992;8.518;2022-10-26T05:56:42;2.35;;;1.75;;
10452;SDS011;5274;51.992;8.518;2022-10-26T05:59:12;4.72;;;2.10;;
10452;SDS011;5274;51.992;8.518;2022-10-26T06:01:53;5.47;;;2.20;;
10452;SDS011;5274;51.992;8.518;2022-10-26T06:04:44;6.32;;;1.80;;
10452;SDS011;5274;51.992;8.518;2022-10-26T06:07:15;5.28;;;1.92;;
10452;SDS011;5274;51.992;8.518;2022-10-26T06:09:44;7.22;;;2.28;;
10452;SDS011;5274;51.992;8.518;2022-10-26T06:12:10;3.47;;;1.80;;
10452;SDS011;5274;51.992;8.518;2022-10-26T06:14:37;3.63;;;2.30;;
10452;SDS011;5274;51.992;8.518;2022-10-26T06:17:06;4.75;;;2.00;;
10452;SDS011;5274;51.992;8.518;2022-10-26T06:30:42;3.40;;;2.22;;
10452;SDS011;5274;51.992;8.518;2022-10-26T06:33:08;4.20;;;1.67;;
10452;SDS011;5274;51.992;8.518;2022-10-26T06:35:40;10.23;;;1.83;;
10452;SDS011;5274;51.992;8.518;2022-10-26T06:38:25;5.65;;;1.88;;
10452;SDS011;5274;51.992;8.518;2022-10-26T06:40:54;4.57;;;1.73;;
10452;SDS011;5274;51.992;8.518;2022-10-26T06:43:24;4.47;;;1.65;;
10452;SDS011;5274;51.992;8.518;2022-10-26T06:45:57;2.72;;;1.67;;
10452;SDS011;5274;51.992;8.518;2022-10-26T06:51:26;4.30;;;1.58;;
10452;SDS011;5274;51.992;8.518;2022-10-26T06:56:45;4.53;;;1.65;;
10452;SDS011;5274;51.992;8.518;2022-10-26T06:59:24;5.60;;;2.05;;
10452;SDS011;5274;51.992;8.518;2022-10-26T07:02:07;4.90;;;1.60;;
10452;SDS011;5274;51.992;8.518;2022-10-26T07:04:36;8.00;;;1.55;;
10452;SDS011;5274;51.992;8.518;2022-10-26T07:07:02;5.45;;;1.95;;
10452;SDS011;5274;51.992;8.518;2022-10-26T07:09:28;4.22;;;1.60;;
10452;SDS011;5274;51.992;8.518;2022-10-26T07:11:53;1.88;;;1.25;;
10452;SDS011;5274;51.992;8.518;2022-10-26T07:14:19;4.97;;;1.48;;
10452;SDS011;5274;51.992;8.518;2022-10-26T07:16:44;2.85;;;1.55;;
10452;SDS011;5274;51.992;8.518;2022-10-26T07:19:10;7.50;;;1.70;;
10452;SDS011;5274;51.992;8.518;2022-10-26T07:21:35;3.30;;;1.40;;
10452;SDS011;5274;51.992;8.518;2022-10-26T07:24:01;3.40;;;1.30;;
10452;SDS011;5274;51.992;8.518;2022-10-26T07:26:26;2.30;;;1.20;;
10452;SDS011;5274;51.992;8.518;2022-10-26T07:28:52;4.05;;;1.00;;
10452;SDS011;5274;51.992;8.518;2022-10-26T07:31:18;2.60;;;1.33;;
10452;SDS011;5274;51.992;8.518;2022-10-26T07:33:43;2.80;;;1.25;;
10452;SDS011;5274;51.992;8.518;2022-10-26T07:36:09;2.83;;;1.35;;
10452;SDS011;5274;51.992;8.518;2022-10-26T07:38:36;3.28;;;1.30;;
10452;SDS011;5274;51.992;8.518;2022-10-26T07:41:02;5.93;;;1.20;;
10452;SDS011;5274;51.992;8.518;2022-10-26T07:43:28;1.95;;;1.10;;
10452;SDS011;5274;51.992;8.518;2022-10-26T07:45:54;1.25;;;0.90;;
10452;SDS011;5274;51.992;8.518;2022-10-26T07:48:19;1.58;;;1.33;;
10452;SDS011;5274;51.992;8.518;2022-10-26T07:50:45;1.00;;;0.90;;
10452;SDS011;5274;51.992;8.518;2022-10-26T07:53:11;6.57;;;1.08;;
10452;SDS011;5274;51.992;8.518;2022-10-26T07:55:36;1.65;;;1.00;;
10452;SDS011;5274;51.992;8.518;2022-10-26T07:58:02;4.53;;;1.38;;
10452;SDS011;5274;51.992;8.518;2022-10-26T08:00:28;5.97;;;1.45;;
10452;SDS011;5274;51.992;8.518;2022-10-26T08:02:53;4.30;;;1.40;;
10452;SDS011;5274;51.992;8.518;2022-10-26T08:05:19;2.90;;;1.23;;
10452;SDS011;5274;51.992;8.518;2022-10-26T08:07:45;3.75;;;1.42;;
10452;SDS011;5274;51.992;8.518;2022-10-26T08:10:11;6.22;;;1.58;;
10452;SDS011;5274;51.992;8.518;2022-10-26T08:12:38;3.20;;;1.20;;
10452;SDS011;5274;51.992;8.518;2022-10-26T08:15:04;3.63;;;1.10;;
10452;SDS011;5274;51.992;8.518;2022-10-26T08:17:31;3.05;;;1.00;;
10452;SDS011;5274;51.992;8.518;2022-10-26T08:19:56;4.90;;;1.38;;
10452;SDS011;5274;51.992;8.518;2022-10-26T08:22:22;2.95;;;1.20;;
10452;SDS011;5274;51.992;8.518;2022-10-26T08:24:48;4.25;;;1.02;;
10452;SDS011;5274;51.992;8.518;2022-10-26T08:27:13;7.25;;;1.48;;
10452;SDS011;5274;51.992;8.518;2022-10-26T08:29:40;2.92;;;1.20;;
10452;SDS011;5274;51.992;8.518;2022-10-26T08:32:06;4.72;;;1.20;;
10452;SDS011;5274;51.992;8.518;2022-10-26T08:34:31;5.38;;;1.33;;
10452;SDS011;5274;51.992;8.518;2022-10-26T08:36:57;6.25;;;1.23;;
10452;SDS011;5274;51.992;8.518;2022-10-26T08:39:23;5.68;;;1.17;;
10452;SDS011;5274;51.992;8.518;2022-10-26T08:41:52;1.30;;;0.82;;
10452;SDS011;5274;51.992;8.518;2022-10-26T08:44:34;1.25;;;1.05;;
10452;SDS011;5274;51.992;8.518;2022-10-26T08:50:09;3.50;;;1.20;;
10452;SDS011;5274;51.992;8.518;2022-10-26T08:52:43;2.38;;;1.20;;
10452;SDS011;5274;51.992;8.518;2022-10-26T08:55:18;0.88;;;0.85;;
10452;SDS011;5274;51.992;8.518;2022-10-26T08:57:50;2.65;;;1.10;;
10452;SDS011;5274;51.992;8.518;2022-10-26T09:00:20;1.10;;;0.80;;
10452;SDS011;5274;51.992;8.518;2022-10-26T09:02:50;3.42;;;1.25;;
10452;SDS011;5274;51.992;8.518;2022-10-26T09:08:21;1.85;;;0.80;;
10452;SDS011;5274;51.992;8.518;2022-10-26T09:13:54;1.67;;;0.90;;
10452;SDS011;5274;51.992;8.518;2022-10-26T09:24:41;2.95;;;1.00;;
10452;SDS011;5274;51.992;8.518;2022-10-26T09:27:26;6.28;;;1.98;;
10452;SDS011;5274;51.992;8.518;2022-10-26T09:29:56;3.75;;;1.02;;
10452;SDS011;5274;51.992;8.518;2022-10-26T09:32:33;7.60;;;1.05;;
10452;SDS011;5274;51.992;8.518;2022-10-26T09:35:17;3.85;;;0.77;;
10452;SDS011;5274;51.992;8.518;2022-10-26T09:37:57;4.07;;;0.88;;
10452;SDS011;5274;51.992;8.518;2022-10-26T09:40:31;4.70;;;0.77;;
10452;SDS011;5274;51.992;8.518;2022-10-26T09:43:06;1.52;;;0.98;;
10452;SDS011;5274;51.992;8.518;2022-10-26T09:45:40;2.30;;;0.95;;
10452;SDS011;5274;51.992;8.518;2022-10-26T09:48:12;1.13;;;0.88;;
10452;SDS011;5274;51.992;8.518;2022-10-26T09:51:06;3.47;;;0.88;;
10452;SDS011;5274;51.992;8.518;2022-10-26T09:53:32;1.52;;;0.90;;
10452;SDS011;5274;51.992;8.518;2022-10-26T09:56:04;1.73;;;0.80;;
10452;SDS011;5274;51.992;8.518;2022-10-26T09:58:34;3.45;;;0.80;;
10452;SDS011;5274;51.992;8.518;2022-10-26T10:01:04;1.70;;;0.90;;
10452;SDS011;5274;51.992;8.518;2022-10-26T10:03:30;2.90;;;1.00;;
10452;SDS011;5274;51.992;8.518;2022-10-26T10:08:42;2.40;;;0.82;;
10452;SDS011;5274;51.992;8.518;2022-10-26T10:11:13;2.25;;;0.90;;
10452;SDS011;5274;51.992;8.518;2022-10-26T10:13:40;2.63;;;1.35;;
10452;SDS011;5274;51.992;8.518;2022-10-26T10:16:18;4.10;;;0.98;;
10452;SDS011;5274;51.992;8.518;2022-10-26T10:18:53;2.17;;;0.68;;
10452;SDS011;5274;51.992;8.518;2022-10-26T10:21:39;1.90;;;0.95;;
10452;SDS011;5274;51.992;8.518;2022-10-26T10:24:20;3.67;;;1.00;;
10452;SDS011;5274;51.992;8.518;2022-10-26T10:29:39;1.55;;;0.98;;
10452;SDS011;5274;51.992;8.518;2022-10-26T10:32:13;3.97;;;0.90;;
10452;SDS011;5274;51.992;8.518;2022-10-26T10:34:47;3.75;;;1.20;;
10452;SDS011;5274;51.992;8.518;2022-10-26T10:39:55;5.45;;;1.20;;
10452;SDS011;5274;51.992;8.518;2022-10-26T10:42:22;1.85;;;1.20;;
10452;SDS011;5274;51.992;8.518;2022-10-26T10:44:52;1.20;;;1.00;;
10452;SDS011;5274;51.992;8.518;2022-10-26T10:47:21;3.08;;;1.00;;
10452;SDS011;5274;51.992;8.518;2022-10-26T10:50:34;1.88;;;1.05;;
10452;SDS011;5274;51.992;8.518;2022-10-26T10:52:43;2.83;;;1.05;;
10452;SDS011;5274;51.992;8.518;2022-10-26T11:00:24;4.10;;;1.02;;
10452;SDS011;5274;51.992;8.518;2022-10-26T11:11:14;6.85;;;1.30;;
10452;SDS011;5274;51.992;8.518;2022-10-26T11:16:56;2.17;;;1.10;;
10452;SDS011;5274;51.992;8.518;2022-10-26T11:19:42;2.30;;;1.00;;
10452;SDS011;5274;51.992;8.518;2022-10-26T11:22:14;9.05;;;1.58;;
10452;SDS011;5274;51.992;8.518;2022-10-26T11:25:02;5.28;;;1.15;;
10452;SDS011;5274;51.992;8.518;2022-10-26T11:27:50;2.05;;;1.00;;
10452;SDS011;5274;51.992;8.518;2022-10-26T11:30:20;4.72;;;1.15;;
10452;SDS011;5274;51.992;8.518;2022-10-26T11:35:28;3.97;;;1.38;;
10452;SDS011;5274;51.992;8.518;2022-10-26T11:38:13;4.55;;;1.13;;
10452;SDS011;5274;51.992;8.518;2022-10-26T11:40:43;2.90;;;1.05;;
10452;SDS011;5274;51.992;8.518;2022-10-26T11:46:12;3.25;;;1.30;;
10452;SDS011;5274;51.992;8.518;2022-10-26T11:54:53;2.40;;;1.15;;
10452;SDS011;5274;51.992;8.518;2022-10-26T11:57:28;2.42;;;1.45;;
10452;SDS011;5274;51.992;8.518;2022-10-26T12:00:04;3.80;;;1.67;;
10452;SDS011;5274;51.992;8.518;2022-10-26T12:02:39;3.10;;;1.27;;
10452;SDS011;5274;51.992;8.518;2022-10-26T12:05:18;7.03;;;1.60;;
10452;SDS011;5274;51.992;8.518;2022-10-26T12:07:52;3.65;;;1.20;;
10452;SDS011;5274;51.992;8.518;2022-10-26T12:10:25;6.53;;;1.63;;
10452;SDS011;5274;51.992;8.518;2022-10-26T12:13:13;6.85;;;1.63;;
10452;SDS011;5274;51.992;8.518;2022-10-26T12:15:52;8.40;;;1.75;;
10452;SDS011;5274;51.992;8.518;2022-10-26T12:21:03;4.82;;;1.80;;
10452;SDS011;5274;51.992;8.518;2022-10-26T12:23:36;3.58;;;1.80;;
10452;SDS011;5274;51.992;8.518;2022-10-26T12:28:47;8.25;;;1.92;;
10452;SDS011;5274;51.992;8.518;2022-10-26T12:34:01;2.40;;;1.50;;
10452;SDS011;5274;51.992;8.518;2022-10-26T12:42:08;5.15;;;1.42;;
10452;SDS011;5274;51.992;8.518;2022-10-26T12:44:35;3.97;;;1.58;;
10452;SDS011;5274;51.992;8.518;2022-10-26T12:47:04;4.72;;;1.88;;
10452;SDS011;5274;51.992;8.518;2022-10-26T12:52:37;6.53;;;2.42;;
10452;SDS011;5274;51.992;8.518;2022-10-26T13:03:27;7.78;;;1.45;;
10452;SDS011;5274;51.992;8.518;2022-10-26T13:06:14;4.68;;;1.65;;
10452;SDS011;5274;51.992;8.518;2022-10-26T13:09:04;2.90;;;1.90;;
10452;SDS011;5274;51.992;8.518;2022-10-26T13:11:35;8.05;;;1.85;;
10452;SDS011;5274;51.992;8.518;2022-10-26T13:14:06;5.28;;;1.60;;
10452;SDS011;5274;51.992;8.518;2022-10-26T13:16:42;5.60;;;1.73;;
10452;SDS011;5274;51.992;8.518;2022-10-26T13:19:21;7.30;;;2.13;;
10452;SDS011;5274;51.992;8.518;2022-10-26T13:21:59;4.65;;;1.58;;
10452;SDS011;5274;51.992;8.518;2022-10-26T13:24:26;4.32;;;1.50;;
10452;SDS011;5274;51.992;8.518;2022-10-26T13:29:29;3.85;;;1.50;;
10452;SDS011;5274;51.992;8.518;2022-10-26T13:31:55;4.63;;;1.58;;
10452;SDS011;5274;51.992;8.518;2022-10-26T13:34:22;4.85;;;2.10;;
10452;SDS011;5274;51.992;8.518;2022-10-26T13:36:58;4.05;;;1.67;;
10452;SDS011;5274;51.992;8.518;2022-10-26T13:39:41;5.18;;;1.70;;
10452;SDS011;5274;51.992;8.518;2022-10-26T13:42:12;6.63;;;1.77;;
10452;SDS011;5274;51.992;8.518;2022-10-26T13:47:25;3.75;;;1.73;;
10452;SDS011;5274;51.992;8.518;2022-10-26T13:50:10;4.13;;;1.65;;
10452;SDS011;5274;51.992;8.518;2022-10-26T13:52:41;3.42;;;1.52;;
10452;SDS011;5274;51.992;8.518;2022-10-26T13:55:23;6.15;;;2.22;;
10452;SDS011;5274;51.992;8.518;2022-10-26T14:01:03;6.30;;;2.13;;
10452;SDS011;5274;51.992;8.518;2022-10-26T14:03:36;11.00;;;2.42;;
10452;SDS011;5274;51.992;8.518;2022-10-26T14:06:09;2.83;;;2.15;;
10452;SDS011;5274;51.992;8.518;2022-10-26T14:08:42;6.40;;;3.17;;
10452;SDS011;5274;51.992;8.518;2022-10-26T14:11:11;5.07;;;2.13;;
10452;SDS011;5274;51.992;8.518;2022-10-26T14:13:39;6.18;;;2.58;;
10452;SDS011;5274;51.992;8.518;2022-10-26T14:16:06;7.47;;;2.33;;
10452;SDS011;5274;51.992;8.518;2022-10-26T14:18:33;10.70;;;2.50;;
10452;SDS011;5274;51.992;8.518;2022-10-26T14:23:29;6.00;;;2.17;;
10452;SDS011;5274;51.992;8.518;2022-10-26T14:25:59;5.07;;;2.40;;
10452;SDS011;5274;51.992;8.518;2022-10-26T14:28:25;7.47;;;2.58;;
10452;SDS011;5274;51.992;8.518;2022-10-26T14:33:48;6.60;;;2.08;;
10452;SDS011;5274;51.992;8.518;2022-10-26T14:36:13;9.68;;;2.30;;
10452;SDS011;5274;51.992;8.518;2022-10-26T14:38:42;4.90;;;2.15;;
10452;SDS011;5274;51.992;8.518;2022-10-26T14:41:10;5.28;;;2.40;;
10452;SDS011;5274;51.992;8.518;2022-10-26T14:43:39;3.80;;;2.13;;
10452;SDS011;5274;51.992;8.518;2022-10-26T14:46:05;5.28;;;2.13;;
10452;SDS011;5274;51.992;8.518;2022-10-26T14:48:36;5.22;;;2.10;;
10452;SDS011;5274;51.992;8.518;2022-10-26T14:51:15;6.85;;;2.20;;
10452;SDS011;5274;51.992;8.518;2022-10-26T14:53:49;7.80;;;2.55;;
10452;SDS011;5274;51.992;8.518;2022-10-26T14:56:19;6.50;;;2.20;;
10452;SDS011;5274;51.992;8.518;2022-10-26T14:58:48;5.00;;;2.17;;
10452;SDS011;5274;51.992;8.518;2022-10-26T15:01:24;8.15;;;3.10;;
10452;SDS011;5274;51.992;8.518;2022-10-26T15:03:53;4.10;;;2.45;;
10452;SDS011;5274;51.992;8.518;2022-10-26T15:06:42;12.80;;;2.42;;
10452;SDS011;5274;51.992;8.518;2022-10-26T15:12:03;7.90;;;3.03;;
10452;SDS011;5274;51.992;8.518;2022-10-26T15:14:29;9.05;;;3.80;;
10452;SDS011;5274;51.992;8.518;2022-10-26T15:16:55;6.80;;;2.65;;
10452;SDS011;5274;51.992;8.518;2022-10-26T15:19:22;4.75;;;2.30;;
10452;SDS011;5274;51.992;8.518;2022-10-26T15:21:50;5.20;;;2.30;;
10452;SDS011;5274;51.992;8.518;2022-10-26T15:26:51;9.00;;;3.75;;
10452;SDS011;5274;51.992;8.518;2022-10-26T15:29:39;6.70;;;3.05;;
10452;SDS011;5274;51.992;8.518;2022-10-26T15:32:14;4.75;;;2.97;;
10452;SDS011;5274;51.992;8.518;2022-10-26T15:37:49;7.60;;;3.05;;
10452;SDS011;5274;51.992;8.518;2022-10-26T15:40:16;3.60;;;2.30;;
10452;SDS011;5274;51.992;8.518;2022-10-26T15:42:42;8.75;;;2.63;;
10452;SDS011;5274;51.992;8.518;2022-10-26T15:45:23;6.70;;;2.38;;
10452;SDS011;5274;51.992;8.518;2022-10-26T15:47:54;10.98;;;3.03;;
10452;SDS011;5274;51.992;8.518;2022-10-26T15:50:23;6.60;;;2.75;;
10452;SDS011;5274;51.992;8.518;2022-10-26T15:52:58;6.57;;;2.80;;
10452;SDS011;5274;51.992;8.518;2022-10-26T15:55:26;7.30;;;3.22;;
10452;SDS011;5274;51.992;8.518;2022-10-26T15:57:53;6.50;;;3.30;;
10452;SDS011;5274;51.992;8.518;2022-10-26T16:00:19;9.60;;;3.67;;
10452;SDS011;5274;51.992;8.518;2022-10-26T16:02:45;9.50;;;3.20;;
10452;SDS011;5274;51.992;8.518;2022-10-26T16:05:11;4.30;;;2.83;;
10452;SDS011;5274;51.992;8.518;2022-10-26T16:07:38;6.25;;;2.75;;
10452;SDS011;5274;51.992;8.518;2022-10-26T16:10:07;6.32;;;2.75;;
10452;SDS011;5274;51.992;8.518;2022-10-26T16:12:39;6.65;;;2.60;;
10452;SDS011;5274;51.992;8.518;2022-10-26T16:15:04;7.15;;;2.95;;
10452;SDS011;5274;51.992;8.518;2022-10-26T16:17:30;8.82;;;3.67;;
10452;SDS011;5274;51.992;8.518;2022-10-26T16:19:57;5.93;;;2.60;;
10452;SDS011;5274;51.992;8.518;2022-10-26T16:22:23;3.20;;;2.40;;
10452;SDS011;5274;51.992;8.518;2022-10-26T16:24:49;5.10;;;2.70;;
10452;SDS011;5274;51.992;8.518;2022-10-26T16:27:15;6.82;;;2.90;;
10452;SDS011;5274;51.992;8.518;2022-10-26T16:29:40;6.35;;;2.40;;
10452;SDS011;5274;51.992;8.518;2022-10-26T16:32:06;5.90;;;3.08;;
10452;SDS011;5274;51.992;8.518;2022-10-26T16:34:31;7.45;;;2.60;;
10452;SDS011;5274;51.992;8.518;2022-10-26T16:36:57;6.05;;;2.70;;
10452;SDS011;5274;51.992;8.518;2022-10-26T16:39:22;7.70;;;3.15;;
10452;SDS011;5274;51.992;8.518;2022-10-26T16:41:48;7.28;;;2.60;;
10452;SDS011;5274;51.992;8.518;2022-10-26T16:44:14;4.70;;;2.60;;
10452;SDS011;5274;51.992;8.518;2022-10-26T16:46:40;3.58;;;2.40;;
10452;SDS011;5274;51.992;8.518;2022-10-26T16:49:05;6.45;;;2.90;;
10452;SDS011;5274;51.992;8.518;2022-10-26T16:51:31;4.95;;;2.50;;
10452;SDS011;5274;51.992;8.518;2022-10-26T16:53:56;9.18;;;3.30;;
10452;SDS011;5274;51.992;8.518;2022-10-26T16:56:23;5.25;;;2.60;;
10452;SDS011;5274;51.992;8.518;2022-10-26T16:58:51;5.35;;;2.95;;
10452;SDS011;5274;51.992;8.518;2022-10-26T17:01:17;7.90;;;4.78;;
10452;SDS011;5274;51.992;8.518;2022-10-26T17:03:44;9.10;;;4.05;;
10452;SDS011;5274;51.992;8.518;2022-10-26T17:06:10;4.38;;;3.15;;
10452;SDS011;5274;51.992;8.518;2022-10-26T17:08:36;8.60;;;3.08;;
10452;SDS011;5274;51.992;8.518;2022-10-26T17:11:03;6.88;;;4.00;;
10452;SDS011;5274;51.992;8.518;2022-10-26T17:13:35;5.28;;;3.50;;
10452;SDS011;5274;51.992;8.518;2022-10-26T17:16:09;7.65;;;3.05;;
10452;SDS011;5274;51.992;8.518;2022-10-26T17:18:40;5.63;;;3.30;;
10452;SDS011;5274;51.992;8.518;2022-10-26T17:21:07;8.55;;;3.60;;
10452;SDS011;5274;51.992;8.518;2022-10-26T17:23:33;4.20;;;3.03;;
10452;SDS011;5274;51.992;8.518;2022-10-26T17:26:00;5.78;;;3.08;;
10452;SDS011;5274;51.992;8.518;2022-10-26T17:28:27;5.97;;;3.58;;
10452;SDS011;5274;51.992;8.518;2022-10-26T17:31:00;5.90;;;3.85;;
10452;SDS011;5274;51.992;8.518;2022-10-26T17:33:30;9.35;;;4.05;;